RYR5YR LIPH-LKPR
Flight info
| Callsign | RYR5YR |
|---|---|
| Flight time | 1h 2m |
| Altitude | 30000 |
| Route | ROKIB DCT BRENO M726 KOGOL N871 NENUM Z39 DOLUP DCT APRAQ |
| Aircraft | B738/M-SDE2E3FGHIRWXY/LB1 |
Departure
| Time | 2026-04-23 19:27 |
|---|---|
| Airport | Treviso Airport (LIPH) |
Arrival
| Time | 2026-04-23 20:30 |
|---|---|
| Airport | Václav Havel Airport Prague (LKPR) |
| Time | Latitude | Longitude | Altitude | Speed | Heading |
|---|---|---|---|---|---|
| 2026-04-23 19:09 | 45.65369 | 12.20377 | 61 ft | 0 kts | 340° |
| 2026-04-23 19:20 | 45.65347 | 12.20389 | 61 ft | 2 kts | 340° |
| 2026-04-23 19:20 | 45.65331 | 12.20396 | 53 ft | 2 kts | 347° |
| 2026-04-23 19:20 | 45.65315 | 12.20394 | 56 ft | 2 kts | 44° |
| 2026-04-23 19:20 | 45.65303 | 12.20377 | 57 ft | 2 kts | 65° |
| 2026-04-23 19:21 | 45.65296 | 12.20356 | 53 ft | 2 kts | 65° |
| 2026-04-23 19:21 | 45.65290 | 12.20334 | 53 ft | 0 kts | 70° |
| 2026-04-23 19:22 | 45.65291 | 12.20339 | 57 ft | 2 kts | 70° |
| 2026-04-23 19:23 | 45.65303 | 12.20386 | 62 ft | 8 kts | 69° |
| 2026-04-23 19:23 | 45.65325 | 12.20468 | 58 ft | 9 kts | 69° |
| 2026-04-23 19:23 | 45.65348 | 12.20551 | 57 ft | 9 kts | 69° |
| 2026-04-23 19:24 | 45.65377 | 12.20711 | 58 ft | 8 kts | 118° |
| 2026-04-23 19:24 | 45.65327 | 12.20749 | 56 ft | 8 kts | 158° |
| 2026-04-23 19:24 | 45.65225 | 12.20791 | 61 ft | 6 kts | 200° |
| 2026-04-23 19:25 | 45.65211 | 12.20761 | 57 ft | 0 kts | 248° |
| 2026-04-23 19:26 | 45.65210 | 12.20760 | 57 ft | 1 kts | 248° |
| 2026-04-23 19:26 | 45.65169 | 12.20608 | 58 ft | 48 kts | 249° |
| 2026-04-23 19:27 | 45.64600 | 12.18472 | 128 ft | 167 kts | 249° |
| 2026-04-23 19:27 | 45.63276 | 12.13972 | 2195 ft | 188 kts | 248° |
| 2026-04-23 19:28 | 45.62073 | 12.10079 | 2722 ft | 237 kts | 246° |
| 2026-04-23 19:28 | 45.60594 | 12.05496 | 3847 ft | 260 kts | 246° |
| 2026-04-23 19:29 | 45.59822 | 12.03125 | 4634 ft | 267 kts | 246° |
| 2026-04-23 19:29 | 45.58963 | 11.98012 | 6176 ft | 273 kts | 282° |
| 2026-04-23 19:30 | 45.60268 | 11.92858 | 7680 ft | 278 kts | 308° |
| 2026-04-23 19:30 | 45.61675 | 11.91047 | 8438 ft | 275 kts | 332° |
| 2026-04-23 19:30 | 45.65165 | 11.88673 | 10042 ft | 280 kts | 339° |
| 2026-04-23 19:31 | 45.66969 | 11.87500 | 10525 ft | 294 kts | 339° |
| 2026-04-23 19:31 | 45.68892 | 11.86228 | 10695 ft | 318 kts | 338° |
| 2026-04-23 19:31 | 45.70963 | 11.84839 | 10954 ft | 337 kts | 338° |
| 2026-04-23 19:31 | 45.73113 | 11.83381 | 11537 ft | 344 kts | 338° |
| 2026-04-23 19:32 | 45.75283 | 11.81888 | 12273 ft | 347 kts | 337° |
| 2026-04-23 19:32 | 45.77444 | 11.80392 | 13022 ft | 350 kts | 337° |
| 2026-04-23 19:32 | 45.79650 | 11.78864 | 13767 ft | 354 kts | 338° |
| 2026-04-23 19:32 | 45.81888 | 11.77315 | 14470 ft | 358 kts | 337° |
| 2026-04-23 19:33 | 45.84148 | 11.75750 | 15270 ft | 358 kts | 337° |
| 2026-04-23 19:33 | 45.86365 | 11.74212 | 16023 ft | 360 kts | 337° |
| 2026-04-23 19:33 | 45.90940 | 11.71042 | 17415 ft | 368 kts | 336° |
| 2026-04-23 19:34 | 45.93283 | 11.69439 | 18230 ft | 370 kts | 339° |
| 2026-04-23 19:34 | 45.95722 | 11.68347 | 18827 ft | 371 kts | 349° |
| 2026-04-23 19:34 | 46.00823 | 11.66878 | 20053 ft | 376 kts | 351° |
| 2026-04-23 19:35 | 46.03405 | 11.66177 | 20592 ft | 381 kts | 351° |
| 2026-04-23 19:35 | 46.06018 | 11.65452 | 21162 ft | 385 kts | 351° |
| 2026-04-23 19:35 | 46.08657 | 11.64702 | 21764 ft | 388 kts | 351° |
| 2026-04-23 19:35 | 46.11306 | 11.63933 | 22419 ft | 389 kts | 351° |
| 2026-04-23 19:36 | 46.13973 | 11.63149 | 22972 ft | 392 kts | 351° |
| 2026-04-23 19:36 | 46.16490 | 11.62403 | 23458 ft | 395 kts | 351° |
| 2026-04-23 19:36 | 46.19198 | 11.61596 | 23937 ft | 399 kts | 351° |
| 2026-04-23 19:36 | 46.21931 | 11.60779 | 24344 ft | 403 kts | 351° |
| 2026-04-23 19:37 | 46.24692 | 11.59951 | 24738 ft | 407 kts | 351° |
| 2026-04-23 19:37 | 46.27474 | 11.59117 | 25171 ft | 409 kts | 352° |
| 2026-04-23 19:37 | 46.29331 | 11.58560 | 25430 ft | 412 kts | 352° |
| 2026-04-23 19:37 | 46.32149 | 11.57713 | 25855 ft | 415 kts | 352° |
| 2026-04-23 19:38 | 46.34996 | 11.56857 | 26263 ft | 418 kts | 353° |
| 2026-04-23 19:38 | 46.37862 | 11.55994 | 26628 ft | 421 kts | 353° |
| 2026-04-23 19:38 | 46.40738 | 11.55128 | 27012 ft | 424 kts | 353° |
| 2026-04-23 19:38 | 46.43647 | 11.54250 | 27392 ft | 427 kts | 353° |
| 2026-04-23 19:39 | 46.46562 | 11.53369 | 27816 ft | 428 kts | 354° |
| 2026-04-23 19:39 | 46.49469 | 11.52488 | 28326 ft | 426 kts | 354° |
| 2026-04-23 19:39 | 46.52370 | 11.51607 | 28899 ft | 424 kts | 354° |
| 2026-04-23 19:39 | 46.55217 | 11.50742 | 29466 ft | 422 kts | 355° |
| 2026-04-23 19:40 | 46.58090 | 11.49870 | 30002 ft | 422 kts | 355° |
| 2026-04-23 19:40 | 46.63910 | 11.48108 | 30131 ft | 426 kts | 355° |
| 2026-04-23 19:41 | 46.69743 | 11.46326 | 30134 ft | 419 kts | 355° |
| 2026-04-23 19:41 | 46.75451 | 11.44585 | 30151 ft | 421 kts | 355° |
| 2026-04-23 19:42 | 46.81211 | 11.42828 | 30188 ft | 424 kts | 355° |
| 2026-04-23 19:42 | 46.87005 | 11.41047 | 30195 ft | 424 kts | 355° |
| 2026-04-23 19:43 | 46.92744 | 11.39286 | 30212 ft | 427 kts | 355° |
| 2026-04-23 19:43 | 46.98680 | 11.37795 | 30241 ft | 433 kts | 2° |
| 2026-04-23 19:44 | 47.04710 | 11.38223 | 30209 ft | 434 kts | 10° |
| 2026-04-23 19:44 | 47.10798 | 11.38940 | 30233 ft | 437 kts | 10° |
| 2026-04-23 19:45 | 47.16889 | 11.39574 | 30240 ft | 438 kts | 9° |
| 2026-04-23 19:45 | 47.22937 | 11.40175 | 30231 ft | 438 kts | 8° |
| 2026-04-23 19:46 | 47.29085 | 11.40288 | 30229 ft | 441 kts | 5° |
| 2026-04-23 19:46 | 47.35211 | 11.40217 | 30224 ft | 441 kts | 6° |
| 2026-04-23 19:47 | 47.41337 | 11.40216 | 30242 ft | 439 kts | 6° |
| 2026-04-23 19:47 | 47.47504 | 11.40140 | 30260 ft | 440 kts | 5° |
| 2026-04-23 19:48 | 47.53645 | 11.40066 | 30232 ft | 441 kts | 5° |
| 2026-04-23 19:48 | 47.56626 | 11.40482 | 30218 ft | 431 kts | 20° |
| 2026-04-23 19:48 | 47.59354 | 11.42140 | 30241 ft | 421 kts | 35° |
| 2026-04-23 19:48 | 47.61657 | 11.44782 | 30250 ft | 415 kts | 47° |
| 2026-04-23 19:49 | 47.63501 | 11.48053 | 30242 ft | 412 kts | 58° |
| 2026-04-23 19:49 | 47.64767 | 11.51857 | 30249 ft | 411 kts | 71° |
| 2026-04-23 19:49 | 47.65603 | 11.55909 | 30247 ft | 412 kts | 73° |
| 2026-04-23 19:50 | 47.67173 | 11.64053 | 30246 ft | 412 kts | 73° |
| 2026-04-23 19:50 | 47.68813 | 11.72236 | 30238 ft | 413 kts | 72° |
| 2026-04-23 19:51 | 47.70475 | 11.80457 | 30238 ft | 412 kts | 73° |
| 2026-04-23 19:51 | 47.72056 | 11.88642 | 30239 ft | 412 kts | 69° |
| 2026-04-23 19:52 | 47.74888 | 11.96020 | 30256 ft | 412 kts | 53° |
| 2026-04-23 19:52 | 47.78994 | 12.01922 | 30262 ft | 416 kts | 41° |
| 2026-04-23 19:53 | 47.83507 | 12.07343 | 30249 ft | 416 kts | 41° |
| 2026-04-23 19:53 | 47.88010 | 12.12829 | 30255 ft | 416 kts | 42° |
| 2026-04-23 19:54 | 47.92467 | 12.18327 | 30255 ft | 416 kts | 42° |
| 2026-04-23 19:54 | 47.96915 | 12.23823 | 30258 ft | 416 kts | 41° |
| 2026-04-23 19:55 | 48.01394 | 12.29359 | 30257 ft | 416 kts | 41° |
| 2026-04-23 19:55 | 48.05859 | 12.34892 | 30251 ft | 416 kts | 41° |
| 2026-04-23 19:56 | 48.10292 | 12.40399 | 30260 ft | 416 kts | 41° |
| 2026-04-23 19:56 | 48.14744 | 12.45959 | 30250 ft | 416 kts | 41° |
| 2026-04-23 19:57 | 48.19179 | 12.51514 | 30246 ft | 416 kts | 41° |
| 2026-04-23 19:57 | 48.22904 | 12.56184 | 30241 ft | 416 kts | 41° |
| 2026-04-23 19:58 | 48.28281 | 12.62307 | 30252 ft | 416 kts | 38° |
| 2026-04-23 19:58 | 48.32956 | 12.67434 | 30243 ft | 416 kts | 38° |
| 2026-04-23 19:59 | 48.37607 | 12.72620 | 30235 ft | 416 kts | 38° |
| 2026-04-23 19:59 | 48.42044 | 12.78130 | 30249 ft | 414 kts | 44° |
| 2026-04-23 20:00 | 48.46277 | 12.84123 | 30235 ft | 414 kts | 44° |
| 2026-04-23 20:00 | 48.50504 | 12.90070 | 30227 ft | 415 kts | 44° |
| 2026-04-23 20:01 | 48.54879 | 12.95699 | 30230 ft | 416 kts | 35° |
| 2026-04-23 20:01 | 48.59934 | 13.00039 | 30227 ft | 417 kts | 31° |
| 2026-04-23 20:02 | 48.64153 | 13.03601 | 30221 ft | 417 kts | 31° |
| 2026-04-23 20:02 | 48.70056 | 13.08678 | 30218 ft | 417 kts | 31° |
| 2026-04-23 20:03 | 48.74256 | 13.12306 | 30233 ft | 417 kts | 31° |
| 2026-04-23 20:03 | 48.79324 | 13.16691 | 30218 ft | 417 kts | 31° |
| 2026-04-23 20:04 | 48.84351 | 13.21049 | 30228 ft | 416 kts | 31° |
| 2026-04-23 20:04 | 48.89458 | 13.25232 | 30212 ft | 418 kts | 25° |
| 2026-04-23 20:05 | 48.94826 | 13.28597 | 30200 ft | 408 kts | 24° |
| 2026-04-23 20:05 | 48.97400 | 13.30201 | 30192 ft | 392 kts | 24° |
| 2026-04-23 20:05 | 48.99899 | 13.31775 | 30209 ft | 385 kts | 25° |
| 2026-04-23 20:06 | 49.04836 | 13.34921 | 29998 ft | 387 kts | 25° |
| 2026-04-23 20:06 | 49.07287 | 13.36486 | 29634 ft | 381 kts | 25° |
| 2026-04-23 20:06 | 49.09639 | 13.38268 | 29205 ft | 374 kts | 34° |
| 2026-04-23 20:06 | 49.11717 | 13.40612 | 28710 ft | 369 kts | 40° |
| 2026-04-23 20:07 | 49.13564 | 13.43299 | 28203 ft | 367 kts | 47° |
| 2026-04-23 20:07 | 49.15102 | 13.46394 | 27737 ft | 364 kts | 53° |
| 2026-04-23 20:07 | 49.16530 | 13.49592 | 27263 ft | 362 kts | 54° |
| 2026-04-23 20:07 | 49.17926 | 13.52774 | 26809 ft | 359 kts | 54° |
| 2026-04-23 20:08 | 49.19311 | 13.55939 | 26373 ft | 356 kts | 54° |
| 2026-04-23 20:08 | 49.20686 | 13.59074 | 25934 ft | 354 kts | 54° |
| 2026-04-23 20:08 | 49.22059 | 13.62194 | 25501 ft | 351 kts | 54° |
| 2026-04-23 20:08 | 49.23421 | 13.65284 | 25072 ft | 349 kts | 54° |
| 2026-04-23 20:09 | 49.24779 | 13.68361 | 24653 ft | 348 kts | 54° |
| 2026-04-23 20:09 | 49.26128 | 13.71418 | 24218 ft | 346 kts | 54° |
| 2026-04-23 20:09 | 49.27477 | 13.74477 | 23781 ft | 345 kts | 54° |
| 2026-04-23 20:09 | 49.28819 | 13.77519 | 23286 ft | 344 kts | 53° |
| 2026-04-23 20:10 | 49.30152 | 13.80546 | 22826 ft | 341 kts | 53° |
| 2026-04-23 20:10 | 49.31478 | 13.83560 | 22383 ft | 339 kts | 53° |
| 2026-04-23 20:10 | 49.32788 | 13.86542 | 21957 ft | 336 kts | 53° |
| 2026-04-23 20:10 | 49.34099 | 13.89529 | 21539 ft | 334 kts | 53° |
| 2026-04-23 20:11 | 49.35388 | 13.92468 | 21129 ft | 332 kts | 53° |
| 2026-04-23 20:11 | 49.36675 | 13.95406 | 20721 ft | 330 kts | 53° |
| 2026-04-23 20:11 | 49.37955 | 13.98332 | 20309 ft | 329 kts | 53° |
| 2026-04-23 20:11 | 49.39213 | 14.01209 | 19914 ft | 327 kts | 53° |
| 2026-04-23 20:12 | 49.40481 | 14.04112 | 19509 ft | 326 kts | 53° |
| 2026-04-23 20:12 | 49.41745 | 14.07010 | 19101 ft | 326 kts | 53° |
| 2026-04-23 20:12 | 49.43004 | 14.09898 | 18699 ft | 325 kts | 53° |
| 2026-04-23 20:12 | 49.44259 | 14.12783 | 18250 ft | 325 kts | 53° |
| 2026-04-23 20:13 | 49.45516 | 14.15674 | 17805 ft | 324 kts | 53° |
| 2026-04-23 20:13 | 49.46782 | 14.18590 | 17377 ft | 322 kts | 53° |
| 2026-04-23 20:13 | 49.48025 | 14.21455 | 16975 ft | 320 kts | 53° |
| 2026-04-23 20:13 | 49.49241 | 14.24260 | 16575 ft | 319 kts | 53° |
| 2026-04-23 20:14 | 49.50473 | 14.27107 | 16182 ft | 318 kts | 53° |
| 2026-04-23 20:14 | 49.51696 | 14.29936 | 15779 ft | 316 kts | 53° |
| 2026-04-23 20:14 | 49.52914 | 14.32755 | 15389 ft | 315 kts | 53° |
| 2026-04-23 20:14 | 49.54127 | 14.35568 | 14995 ft | 314 kts | 53° |
| 2026-04-23 20:15 | 49.55336 | 14.38372 | 14608 ft | 314 kts | 53° |
| 2026-04-23 20:15 | 49.56545 | 14.41179 | 14206 ft | 314 kts | 53° |
| 2026-04-23 20:15 | 49.57752 | 14.43985 | 13782 ft | 314 kts | 53° |
| 2026-04-23 20:15 | 49.58958 | 14.46790 | 13357 ft | 313 kts | 53° |
| 2026-04-23 20:16 | 49.60160 | 14.49590 | 12941 ft | 312 kts | 53° |
| 2026-04-23 20:16 | 49.61357 | 14.52382 | 12537 ft | 311 kts | 53° |
| 2026-04-23 20:16 | 49.62549 | 14.55168 | 12141 ft | 310 kts | 53° |
| 2026-04-23 20:16 | 49.63720 | 14.57904 | 11733 ft | 309 kts | 53° |
| 2026-04-23 20:17 | 49.64917 | 14.60705 | 11351 ft | 307 kts | 53° |
| 2026-04-23 20:17 | 49.66080 | 14.63428 | 10958 ft | 307 kts | 53° |
| 2026-04-23 20:17 | 49.67251 | 14.66174 | 10680 ft | 302 kts | 53° |
| 2026-04-23 20:17 | 49.68391 | 14.68854 | 10508 ft | 295 kts | 53° |
| 2026-04-23 20:18 | 49.69505 | 14.71470 | 10377 ft | 286 kts | 53° |
| 2026-04-23 20:18 | 49.70581 | 14.74000 | 10249 ft | 277 kts | 53° |
| 2026-04-23 20:18 | 49.71624 | 14.76457 | 10076 ft | 271 kts | 53° |
| 2026-04-23 20:18 | 49.72649 | 14.78870 | 9758 ft | 270 kts | 53° |
| 2026-04-23 20:19 | 49.73849 | 14.81029 | 9536 ft | 260 kts | 36° |
| 2026-04-23 20:19 | 49.75278 | 14.82707 | 9311 ft | 256 kts | 33° |
| 2026-04-23 20:19 | 49.76697 | 14.84351 | 9064 ft | 253 kts | 32° |
| 2026-04-23 20:19 | 49.78271 | 14.85422 | 8806 ft | 244 kts | 7° |
| 2026-04-23 20:20 | 49.79940 | 14.85301 | 8555 ft | 240 kts | 345° |
| 2026-04-23 20:20 | 49.81448 | 14.84224 | 8294 ft | 240 kts | 326° |
| 2026-04-23 20:20 | 49.82622 | 14.82386 | 8053 ft | 240 kts | 311° |
| 2026-04-23 20:20 | 49.83641 | 14.80320 | 7787 ft | 240 kts | 310° |
| 2026-04-23 20:21 | 49.84625 | 14.78271 | 7540 ft | 239 kts | 310° |
| 2026-04-23 20:21 | 49.85636 | 14.76179 | 7274 ft | 238 kts | 310° |
| 2026-04-23 20:21 | 49.86624 | 14.74144 | 7041 ft | 236 kts | 310° |
| 2026-04-23 20:21 | 49.87625 | 14.72100 | 6783 ft | 235 kts | 311° |
| 2026-04-23 20:22 | 49.88613 | 14.70084 | 6533 ft | 233 kts | 311° |
| 2026-04-23 20:22 | 49.89584 | 14.68103 | 6367 ft | 228 kts | 311° |
| 2026-04-23 20:22 | 49.90538 | 14.66157 | 6146 ft | 225 kts | 311° |
| 2026-04-23 20:22 | 49.91475 | 14.64245 | 5890 ft | 224 kts | 310° |
| 2026-04-23 20:23 | 49.92431 | 14.62296 | 5623 ft | 223 kts | 310° |
| 2026-04-23 20:23 | 49.93348 | 14.60424 | 5366 ft | 221 kts | 310° |
| 2026-04-23 20:23 | 49.94217 | 14.58648 | 5165 ft | 216 kts | 310° |
| 2026-04-23 20:23 | 49.95113 | 14.56817 | 4890 ft | 210 kts | 310° |
| 2026-04-23 20:24 | 49.95990 | 14.55023 | 4591 ft | 205 kts | 310° |
| 2026-04-23 20:24 | 49.96843 | 14.53277 | 4306 ft | 201 kts | 310° |
| 2026-04-23 20:24 | 49.97682 | 14.51557 | 4055 ft | 195 kts | 310° |
| 2026-04-23 20:24 | 49.98472 | 14.49936 | 3992 ft | 181 kts | 311° |
| 2026-04-23 20:25 | 49.99196 | 14.48447 | 3983 ft | 165 kts | 311° |
| 2026-04-23 20:25 | 49.99868 | 14.47136 | 3981 ft | 153 kts | 313° |
| 2026-04-23 20:25 | 50.00526 | 14.45825 | 3990 ft | 153 kts | 311° |
| 2026-04-23 20:25 | 50.01175 | 14.44496 | 3883 ft | 155 kts | 311° |
| 2026-04-23 20:26 | 50.01797 | 14.43207 | 3702 ft | 140 kts | 311° |
| 2026-04-23 20:26 | 50.02366 | 14.42024 | 3508 ft | 132 kts | 311° |
| 2026-04-23 20:26 | 50.02924 | 14.40869 | 3329 ft | 136 kts | 311° |
| 2026-04-23 20:26 | 50.03494 | 14.39686 | 3136 ft | 136 kts | 311° |
| 2026-04-23 20:27 | 50.04062 | 14.38506 | 2957 ft | 137 kts | 311° |
| 2026-04-23 20:27 | 50.04626 | 14.37339 | 2767 ft | 132 kts | 310° |
| 2026-04-23 20:27 | 50.05175 | 14.36194 | 2570 ft | 133 kts | 310° |
| 2026-04-23 20:27 | 50.05732 | 14.35044 | 2401 ft | 132 kts | 309° |
| 2026-04-23 20:28 | 50.06283 | 14.33888 | 2271 ft | 134 kts | 309° |
| 2026-04-23 20:28 | 50.06853 | 14.32715 | 2021 ft | 137 kts | 309° |
| 2026-04-23 20:28 | 50.07418 | 14.31539 | 1843 ft | 135 kts | 308° |
| 2026-04-23 20:28 | 50.07799 | 14.30756 | 1732 ft | 140 kts | 308° |
| 2026-04-23 20:29 | 50.08595 | 14.29104 | 1428 ft | 143 kts | 307° |
| 2026-04-23 20:29 | 50.09175 | 14.27896 | 1223 ft | 134 kts | 307° |
| 2026-04-23 20:29 | 50.09680 | 14.26850 | 1208 ft | 103 kts | 307° |
| 2026-04-23 20:29 | 50.09932 | 14.26334 | 1197 ft | 74 kts | 306° |
| 2026-04-23 20:30 | 50.10176 | 14.25833 | 1187 ft | 40 kts | 307° |
| 2026-04-23 20:30 | 50.10340 | 14.25667 | 1184 ft | 13 kts | 350° |
| 2026-04-23 20:30 | 50.10428 | 14.25662 | 1182 ft | 13 kts | 6° |
| 2026-04-23 20:31 | 50.10485 | 14.25728 | 1179 ft | 10 kts | 78° |
| 2026-04-23 20:31 | 50.10499 | 14.25851 | 1176 ft | 13 kts | 79° |
| 2026-04-23 20:31 | 50.10540 | 14.25978 | 1174 ft | 14 kts | 43° |
| 2026-04-23 20:31 | 50.10617 | 14.26060 | 1172 ft | 13 kts | 32° |
| 2026-04-23 20:32 | 50.10692 | 14.26137 | 1173 ft | 13 kts | 34° |
| 2026-04-23 20:32 | 50.10764 | 14.26214 | 1171 ft | 12 kts | 34° |
| 2026-04-23 20:32 | 50.10822 | 14.26246 | 1172 ft | 8 kts | 343° |
| 2026-04-23 20:32 | 50.10857 | 14.26185 | 1171 ft | 8 kts | 305° |
| 2026-04-23 20:33 | 50.10897 | 14.26126 | 1170 ft | 8 kts | 341° |
| 2026-04-23 20:33 | 50.10942 | 14.26163 | 1168 ft | 7 kts | 74° |
| 2026-04-23 20:33 | 50.10926 | 14.26218 | 1168 ft | 4 kts | 125° |
| 2026-04-23 20:33 | 50.10913 | 14.26246 | 1172 ft | 0 kts | 125° |